Time;durP1;ratioP1;P1;durP2;ratioP2;P2;SDS_P1;SDS_P2;PMS_P1;PMS_P2;Temp;Humidity;BMP_temperature;BMP_pressure;BME280_temperature;BME280_humidity;BME280_pressure;Samples;Min_cycle;Max_cycle;Signal;HPM_P1;HPM_P2
2022/01/25 00:26:35;;;;;;;148.43;42.85;;;;;;;1.25;94.15;103443.09;5076125;28;20114;-77
2022/01/25 00:29:11;;;;;;;139.75;45.47;;;;;;;1.26;93.69;103437.16;5076021;28;20025;-77
2022/01/25 00:31:39;;;;;;;149.23;45.10;;;;;;;1.27;94.42;103436.44;5081707;28;20008;-77
2022/01/25 00:34:05;;;;;;;141.73;43.72;;;;;;;1.30;93.65;103447.00;5080280;28;20030;-77
2022/01/25 00:36:30;;;;;;;138.88;43.55;;;;;;;1.31;93.85;103448.84;5080157;28;20036;-77
2022/01/25 00:38:56;;;;;;;127.47;40.67;;;;;;;1.31;94.51;103441.13;5081944;28;20263;-77
2022/01/25 00:41:23;;;;;;;124.25;38.85;;;;;;;1.32;93.87;103445.53;5077693;28;20016;-77
2022/01/25 00:43:50;;;;;;;126.68;40.55;;;;;;;1.31;94.52;103447.16;5079861;28;20016;-77
2022/01/25 00:46:19;;;;;;;135.63;41.50;;;;;;;1.32;94.33;103443.88;5081482;28;20342;-77
2022/01/25 00:48:47;;;;;;;141.68;41.42;;;;;;;1.34;93.94;103444.03;5080447;28;20016;-77
2022/01/25 00:54:05;;;;;;;138.15;40.97;;;;;;;1.35;93.81;103443.28;5080085;28;20079;-77
2022/01/25 00:56:37;;;;;;;131.70;40.50;;;;;;;1.36;93.86;103432.22;5086175;28;20086;-77
2022/01/25 00:59:08;;;;;;;128.75;38.58;;;;;;;1.37;94.22;103437.53;5079556;28;20024;-77
2022/01/25 01:01:36;;;;;;;123.55;40.40;;;;;;;1.38;94.08;103433.31;5085173;28;20023;-77
2022/01/25 01:04:03;;;;;;;130.65;37.95;;;;;;;1.38;94.22;103431.63;5079117;28;20279;-77
2022/01/25 01:06:28;;;;;;;117.72;38.30;;;;;;;1.37;94.63;103431.47;5085963;28;20021;-77
2022/01/25 01:08:54;;;;;;;114.47;37.53;;;;;;;1.36;94.29;103438.28;5084550;28;20023;-77
2022/01/25 01:11:28;;;;;;;122.70;38.45;;;;;;;1.37;94.54;103440.09;5085920;28;20013;-77
2022/01/25 01:14:03;;;;;;;130.43;39.45;;;;;;;1.37;93.99;103436.63;5072985;28;20070;-76
2022/01/25 01:31:36;;;;;;;120.60;37.50;;;;;;;1.42;94.11;103444.78;5078687;28;20027;-77
2022/01/25 01:43:59;;;;;;;132.18;40.55;;;;;;;1.43;94.40;103451.75;5081540;28;20028;-77
2022/01/25 01:49:00;;;;;;;143.85;43.35;;;;;;;1.45;94.66;103448.59;5080585;28;20275;-77
2022/01/25 01:51:34;;;;;;;132.85;38.95;;;;;;;1.45;94.60;103450.25;5081705;28;20009;-77
2022/01/25 01:54:10;;;;;;;120.22;37.53;;;;;;;1.45;94.72;103451.19;5081399;28;20055;-77
2022/01/25 01:56:36;;;;;;;107.85;36.78;;;;;;;1.47;94.33;103457.38;5082108;28;20039;-77
2022/01/25 01:59:08;;;;;;;115.70;36.35;;;;;;;1.49;94.22;103448.19;5079657;28;20023;-77
2022/01/25 02:01:36;;;;;;;112.45;37.47;;;;;;;1.50;94.05;103452.53;5082887;28;20012;-77
2022/01/25 02:04:04;;;;;;;120.00;36.88;;;;;;;1.50;94.57;103457.69;5083817;28;20286;-77
2022/01/25 02:06:30;;;;;;;116.47;37.72;;;;;;;1.50;94.23;103449.97;5084845;28;20266;-77
2022/01/25 02:08:57;;;;;;;126.90;41.05;;;;;;;1.50;94.64;103441.38;5082595;28;20038;-77
2022/01/25 02:11:22;;;;;;;118.03;37.88;;;;;;;1.52;94.30;103432.13;5081722;28;20019;-78
2022/01/25 02:13:48;;;;;;;126.32;39.38;;;;;;;1.52;94.62;103442.41;5082452;28;20024;-77
2022/01/25 02:16:33;;;;;;;129.32;38.50;;;;;;;1.50;94.71;103439.69;5082197;28;20203;-78
2022/01/25 02:24:32;;;;;;;123.40;38.22;;;;;;;1.54;95.44;103441.81;5079203;28;20039;-77
2022/01/25 02:26:57;;;;;;;125.72;38.10;;;;;;;1.54;95.23;103434.13;5083136;28;20028;-77
2022/01/25 02:29:24;;;;;;;112.95;36.90;;;;;;;1.54;95.32;103431.56;5080115;28;20032;-77
2022/01/25 02:31:52;;;;;;;119.00;36.58;;;;;;;1.53;94.84;103437.44;5079346;28;20040;-77
2022/01/25 02:34:17;;;;;;;102.68;34.22;;;;;;;1.53;94.60;103437.44;5074481;28;20029;-77
2022/01/25 02:36:43;;;;;;;113.55;36.28;;;;;;;1.54;94.96;103431.56;5079971;28;20051;-77
2022/01/25 02:39:08;;;;;;;116.10;36.50;;;;;;;1.54;94.77;103426.41;5076460;28;20009;-77
2022/01/25 02:41:35;;;;;;;119.15;37.85;;;;;;;1.54;94.62;103423.84;5080556;28;20259;-77
2022/01/25 02:44:00;;;;;;;119.97;39.17;;;;;;;1.53;94.86;103414.31;5074431;28;20103;-77
2022/01/25 02:49:00;;;;;;;118.93;37.70;;;;;;;1.56;94.98;103419.78;5083234;28;20392;-77
2022/01/25 02:51:28;;;;;;;124.22;38.42;;;;;;;1.58;94.90;103426.72;5077043;28;20031;-77
2022/01/25 02:53:54;;;;;;;137.07;39.70;;;;;;;1.59;94.84;103413.13;5075986;28;20247;-77
2022/01/25 02:56:20;;;;;;;124.20;40.35;;;;;;;1.59;94.93;103419.16;5080881;28;20012;-77
2022/01/25 02:58:46;;;;;;;125.18;39.95;;;;;;;1.60;95.06;103420.09;5077970;28;20017;-77
2022/01/25 03:01:13;;;;;;;128.70;39.67;;;;;;;1.60;94.98;103420.09;5077424;28;20084;-77
2022/01/25 03:03:38;;;;;;;129.18;38.40;;;;;;;1.60;94.76;103414.94;5083848;28;20020;-77
2022/01/25 03:06:05;;;;;;;119.22;37.13;;;;;;;1.60;94.98;103413.28;5085640;28;20058;-77
2022/01/25 03:08:31;;;;;;;126.57;39.30;;;;;;;1.60;95.27;103418.41;5079519;28;20029;-77
2022/01/25 03:10:56;;;;;;;118.43;36.97;;;;;;;1.60;94.86;103407.25;5082202;28;20164;-77
2022/01/25 03:13:27;;;;;;;126.15;38.58;;;;;;;1.61;94.61;103411.59;5082447;28;20261;-77
2022/01/25 03:15:58;;;;;;;118.63;38.35;;;;;;;1.61;94.69;103404.81;5083989;28;20024;-77
2022/01/25 03:23:43;;;;;;;118.43;36.60;;;;;;;1.63;94.98;103389.56;5078030;28;20021;-77
2022/01/25 03:26:09;;;;;;;115.55;37.22;;;;;;;1.65;95.29;103395.75;5082190;28;20019;-77
2022/01/25 03:28:34;;;;;;;112.10;35.65;;;;;;;1.64;94.63;103401.66;5077561;28;20051;-77
2022/01/25 03:30:59;;;;;;;118.47;37.28;;;;;;;1.64;95.23;103396.53;5077019;28;20021;-77
2022/01/25 03:33:25;;;;;;;123.70;36.97;;;;;;;1.62;94.94;103391.19;5081065;28;20073;-77
2022/01/25 03:35:51;;;;;;;130.50;38.97;;;;;;;1.63;94.72;103389.56;5083671;28;20023;-77
2022/01/25 03:38:16;;;;;;;128.85;39.67;;;;;;;1.63;95.19;103384.41;5080688;28;20019;-77
2022/01/25 03:40:42;;;;;;;126.97;38.83;;;;;;;1.66;95.00;103388.19;5076567;28;20094;-77
2022/01/25 03:43:08;;;;;;;123.72;37.65;;;;;;;1.65;95.22;103372.63;5076723;28;20023;-77
2022/01/25 03:45:37;;;;;;;122.32;39.25;;;;;;;1.66;95.21;103388.19;5081952;28;20020;-77
2022/01/25 03:50:42;;;;;;;130.48;38.70;;;;;;;1.68;94.80;103396.06;5082862;28;20085;-77
2022/01/25 03:53:09;;;;;;;129.38;37.47;;;;;;;1.66;94.76;103393.34;5080392;28;20021;-77
2022/01/25 03:55:34;;;;;;;122.32;37.78;;;;;;;1.66;95.50;103392.44;5075807;28;20013;-77
2022/01/25 03:58:00;;;;;;;128.48;38.33;;;;;;;1.66;95.57;103395.91;5078508;28;20020;-77
2022/01/25 04:00:25;;;;;;;120.28;37.97;;;;;;;1.67;95.43;103396.84;5076175;28;20080;-77
2022/01/25 04:03:05;;;;;;;123.47;37.33;;;;;;;1.68;95.04;103393.47;5078577;28;20290;-77
2022/01/25 04:08:09;;;;;;;120.45;36.70;;;;;;;1.70;95.33;103408.31;5076762;28;20027;-77
2022/01/25 04:10:34;;;;;;;128.90;38.97;;;;;;;1.68;94.75;103399.56;5077888;28;20065;-77
2022/01/25 04:13:00;;;;;;;122.25;36.67;;;;;;;1.70;95.20;103403.16;5082034;28;20012;-77
2022/01/25 04:15:25;;;;;;;116.72;35.83;;;;;;;1.72;95.19;103411.03;5078408;28;20150;-76
2022/01/25 04:18:00;;;;;;;121.38;36.35;;;;;;;1.73;94.96;103410.28;5078758;28;20039;-77
2022/01/25 04:20:31;;;;;;;121.07;37.35;;;;;;;1.73;95.53;103407.72;5076632;28;20024;-77
2022/01/25 04:26:01;;;;;;;125.28;37.25;;;;;;;1.75;95.16;103398.50;5048860;28;20071;-77
2022/01/25 04:28:26;;;;;;;135.40;38.38;;;;;;;1.74;95.46;103389.88;5049549;28;20037;-76
2022/01/25 04:30:52;;;;;;;146.70;40.22;;;;;;;1.74;94.54;103389.88;5069897;28;20024;-76
2022/01/25 04:33:24;;;;;;;137.77;40.83;;;;;;;1.76;95.19;103392.59;5083652;28;20028;-77
2022/01/25 04:49:45;;;;;;;140.43;39.42;;;;;;;1.79;94.48;103379.16;5046548;28;20086;-77
2022/01/25 04:52:15;;;;;;;142.32;39.88;;;;;;;1.80;95.24;103386.13;5085890;28;20275;-77
2022/01/25 04:54:49;;;;;;;138.73;39.63;;;;;;;1.80;95.04;103381.88;5080351;28;20035;-76
2022/01/25 05:00:06;;;;;;;150.80;41.42;;;;;;;1.81;94.61;103382.78;5073519;28;20043;-77
2022/01/25 05:02:51;;;;;;;141.45;40.60;;;;;;;1.79;94.96;103376.59;5077272;28;20012;-77
2022/01/25 05:05:24;;;;;;;127.60;37.72;;;;;;;1.81;95.31;103377.63;5085021;28;20028;-76
2022/01/25 05:07:57;;;;;;;128.00;37.80;;;;;;;1.80;95.28;103374.16;5085389;28;20013;-77
2022/01/25 05:10:23;;;;;;;145.68;39.63;;;;;;;1.80;94.99;103374.16;5081864;28;20152;-77
2022/01/25 05:13:14;;;;;;;128.90;39.72;;;;;;;1.82;94.89;103382.03;5084624;28;20073;-77
2022/01/25 05:18:19;;;;;;;126.57;38.10;;;;;;;1.83;95.07;103374.47;5081618;28;20043;-76
2022/01/25 05:23:42;;;;;;;132.95;39.47;;;;;;;1.85;95.12;103374.63;5056501;28;20031;-77
2022/01/25 05:26:07;;;;;;;145.73;40.03;;;;;;;1.84;94.79;103372.81;5070714;28;20021;-76
2022/01/25 05:28:33;;;;;;;135.20;39.10;;;;;;;1.85;95.10;103379.75;5076913;28;20148;-77
2022/01/25 05:30:58;;;;;;;125.20;38.40;;;;;;;1.86;94.82;103369.63;5084932;28;20072;-76
2022/01/25 05:33:24;;;;;;;122.47;37.55;;;;;;;1.86;95.36;103374.78;5077926;28;20017;-76
2022/01/25 05:35:49;;;;;;;129.77;38.80;;;;;;;1.85;95.43;103365.25;5082697;28;20009;-77
2022/01/25 05:38:14;;;;;;;130.38;38.22;;;;;;;1.87;95.13;103365.41;5083544;28;20067;-77
2022/01/25 05:40:48;;;;;;;126.82;37.95;;;;;;;1.84;95.15;103366.00;5081840;28;20024;-77
2022/01/25 05:48:29;;;;;;;132.38;37.75;;;;;;;1.86;95.52;103369.63;5082421;28;20167;-77
2022/01/25 05:50:57;;;;;;;128.48;37.95;;;;;;;1.85;95.40;103365.25;5084443;28;20012;-76
2022/01/25 05:53:22;;;;;;;130.30;38.80;;;;;;;1.87;95.16;103370.56;5080908;28;20023;-76
2022/01/25 05:55:48;;;;;;;137.93;39.58;;;;;;;1.87;95.14;103371.47;5084208;28;20017;-77
2022/01/25 05:58:13;;;;;;;132.80;38.70;;;;;;;1.87;95.81;103366.31;5080507;28;20216;-76
2022/01/25 06:00:39;;;;;;;135.60;39.03;;;;;;;1.88;95.30;103373.28;5084122;28;20035;-76
2022/01/25 06:03:05;;;;;;;126.25;38.40;;;;;;;1.89;95.51;103372.50;5082372;28;20016;-76
2022/01/25 06:05:32;;;;;;;127.60;36.63;;;;;;;1.89;95.46;103363.91;5083994;28;20031;-76
2022/01/25 06:07:58;;;;;;;135.65;40.05;;;;;;;1.89;95.57;103361.31;5082727;28;20089;-77
2022/01/25 06:10:23;;;;;;;135.85;39.20;;;;;;;1.88;95.52;103364.66;5075544;28;20025;-78
2022/01/25 06:12:48;;;;;;;137.70;39.58;;;;;;;1.88;95.22;103365.56;5080422;28;20087;-77
2022/01/25 06:15:14;;;;;;;135.07;38.85;;;;;;;1.89;95.03;103369.03;5082524;28;20041;-78
2022/01/25 06:17:40;;;;;;;137.55;39.25;;;;;;;1.89;94.81;103364.78;5080955;28;20255;-78
2022/01/25 06:20:06;;;;;;;132.95;38.03;;;;;;;1.89;95.10;103367.38;5081983;28;20027;-77
2022/01/25 06:22:31;;;;;;;125.45;36.88;;;;;;;1.88;95.32;103370.72;5083464;28;20024;-78
2022/01/25 06:24:57;;;;;;;115.90;35.55;;;;;;;1.89;95.75;103366.47;5079571;28;20020;-78
2022/01/25 06:27:23;;;;;;;113.22;34.00;;;;;;;1.87;95.66;103366.31;5081496;28;20016;-78
2022/01/25 06:29:49;;;;;;;124.70;36.78;;;;;;;1.87;95.37;103358.59;5078252;28;20024;-78
2022/01/25 06:32:14;;;;;;;133.35;38.33;;;;;;;1.88;95.31;103370.72;5076851;28;20012;-78
2022/01/25 06:34:40;;;;;;;130.07;38.30;;;;;;;1.89;95.60;103366.47;5080372;28;20079;-77
2022/01/25 06:37:06;;;;;;;127.13;36.83;;;;;;;1.90;95.40;103370.88;5080424;28;20044;-77
2022/01/25 06:39:31;;;;;;;130.75;37.00;;;;;;;1.91;95.22;103364.94;5082103;28;20027;-76
2022/01/25 06:41:59;;;;;;;146.32;41.90;;;;;;;1.91;95.15;103364.94;5081124;28;20075;-77
2022/01/25 06:44:24;;;;;;;140.70;40.10;;;;;;;1.91;95.29;103371.00;5078815;28;20025;-77
2022/01/25 06:46:49;;;;;;;153.07;42.50;;;;;;;1.91;95.85;103373.59;5080783;28;20008;-77
2022/01/25 06:49:16;;;;;;;151.68;43.70;;;;;;;1.92;95.38;103374.47;5081766;28;20263;-77
2022/01/25 06:51:42;;;;;;;153.88;40.75;;;;;;;1.91;95.41;103371.00;5080115;28;20058;-77
2022/01/25 06:54:08;;;;;;;147.48;40.75;;;;;;;1.92;95.63;103370.22;5080332;28;20205;-77
2022/01/25 06:56:33;;;;;;;149.82;42.80;;;;;;;1.94;95.21;103378.13;5080875;28;20017;-76
2022/01/25 06:58:59;;;;;;;150.35;41.17;;;;;;;1.95;95.23;103371.31;5079948;28;20016;-77
2022/01/25 07:01:24;;;;;;;156.88;40.20;;;;;;;1.95;95.33;103379.03;5079397;28;20029;-77
2022/01/25 07:03:50;;;;;;;154.40;41.50;;;;;;;1.96;95.64;103380.84;5081167;28;20062;-77
2022/01/25 07:06:15;;;;;;;125.20;37.42;;;;;;;1.95;95.68;103386.75;5078222;28;20012;-76
2022/01/25 07:08:44;;;;;;;140.60;39.70;;;;;;;1.95;95.63;103390.22;5074082;28;20183;-77
2022/01/25 07:11:09;;;;;;;150.13;41.22;;;;;;;1.97;95.63;103382.66;5076665;28;20083;-77
2022/01/25 07:13:35;;;;;;;138.27;39.55;;;;;;;1.96;95.67;103389.47;5082628;28;20051;-77
2022/01/25 07:16:00;;;;;;;152.40;41.47;;;;;;;1.96;95.85;103388.56;5078813;28;20223;-76
2022/01/25 07:18:25;;;;;;;148.02;40.45;;;;;;;1.97;95.77;103390.34;5080829;28;20163;-76
2022/01/25 07:20:50;;;;;;;141.55;40.00;;;;;;;1.98;95.41;103390.50;5076491;28;20085;-77
2022/01/25 07:23:16;;;;;;;142.57;40.17;;;;;;;1.98;95.26;103387.03;5080895;28;20538;-76
2022/01/25 07:25:41;;;;;;;147.07;41.60;;;;;;;1.97;95.33;103383.56;5079370;28;20095;-77
2022/01/25 07:28:07;;;;;;;149.38;39.63;;;;;;;1.98;95.88;103387.03;5079697;28;20074;-76
2022/01/25 07:30:32;;;;;;;157.80;43.47;;;;;;;1.97;94.88;103386.16;5081698;28;20024;-76
2022/01/25 07:32:57;;;;;;;146.80;39.97;;;;;;;1.97;96.00;103390.34;5082174;28;20020;-77
2022/01/25 07:35:23;;;;;;;130.98;37.25;;;;;;;1.97;96.18;103392.94;5083012;28;20029;-77
2022/01/25 07:37:48;;;;;;;136.80;39.42;;;;;;;1.97;96.14;103388.72;5076594;28;20036;-78
2022/01/25 07:40:15;;;;;;;133.65;37.30;;;;;;;1.98;95.83;103387.03;5073962;28;20025;-77
2022/01/25 07:42:41;;;;;;;141.80;39.53;;;;;;;1.99;96.16;103394.00;5083198;28;20032;-76
2022/01/25 07:45:10;;;;;;;142.25;39.60;;;;;;;1.99;96.16;103388.88;5076149;28;20027;-76
2022/01/25 07:47:36;;;;;;;142.17;41.20;;;;;;;1.99;95.76;103392.34;5080689;28;20103;-77
2022/01/25 07:50:04;;;;;;;154.52;41.08;;;;;;;1.99;95.37;103396.59;5075085;28;20325;-77
2022/01/25 07:52:30;;;;;;;143.75;39.00;;;;;;;2.02;95.40;103389.16;5079339;28;20009;-78
2022/01/25 07:54:55;;;;;;;142.57;39.53;;;;;;;2.02;95.45;103397.78;5080462;28;20016;-79
2022/01/25 07:57:21;;;;;;;157.98;41.40;;;;;;;2.03;95.13;103391.91;5075482;28;20613;-78
2022/01/25 07:59:46;;;;;;;151.70;41.35;;;;;;;2.05;95.08;103392.03;5074330;28;20016;-77
2022/01/25 08:02:15;;;;;;;148.65;39.45;;;;;;;2.05;95.38;103398.09;5077529;28;20032;-78
2022/01/25 08:04:41;;;;;;;;;;;;;;;2.12;94.72;103396.13;5075325;28;20501;-78
2022/01/25 08:07:06;;;;;;;143.55;38.13;;;;;;;2.11;95.21;103397.78;5080046;28;20059;-78
2022/01/25 08:09:31;;;;;;;156.07;41.50;;;;;;;2.10;95.42;103393.41;5070675;28;20168;-78
2022/01/25 08:11:59;;;;;;;178.63;45.20;;;;;;;2.11;94.67;103390.06;5078631;28;20092;-77
2022/01/25 08:14:25;;;;;;;170.95;43.25;;;;;;;2.12;94.81;103391.91;5074477;28;20325;-76
2022/01/25 08:16:51;;;;;;;174.88;44.95;;;;;;;2.12;94.42;103389.31;5081465;28;20107;-83
2022/01/25 08:19:18;;;;;;;159.88;44.00;;;;;;;2.13;94.28;103398.88;5082489;28;20313;-76
2022/01/25 08:21:45;;;;;;;176.40;45.83;;;;;;;2.16;94.28;103399.16;5086320;28;20267;-76
2022/01/25 08:24:13;;;;;;;205.65;52.25;;;;;;;2.18;94.53;103405.34;5076072;28;20012;-76
2022/01/25 08:26:40;;;;;;;213.55;54.08;;;;;;;2.19;94.49;103402.03;5083300;28;20411;-76
2022/01/25 08:29:06;;;;;;;224.45;57.78;;;;;;;2.20;94.17;103402.94;5085368;28;20048;-76
2022/01/25 08:31:31;;;;;;;190.45;46.80;;;;;;;2.19;94.50;103407.19;5079285;28;20028;-76
2022/01/25 08:33:57;;;;;;;183.45;46.15;;;;;;;2.19;94.41;103402.03;5080784;28;20017;-76
2022/01/25 08:36:22;;;;;;;327.35;83.95;;;;;;;2.22;94.26;103398.88;5075113;28;20123;-76
2022/01/25 08:38:48;;;;;;;262.77;69.05;;;;;;;2.22;93.87;103402.34;5083185;28;20028;-76
2022/01/25 08:41:13;;;;;;;219.45;56.28;;;;;;;2.23;94.02;103404.16;5079314;28;20326;-76
2022/01/25 08:43:38;;;;;;;227.48;56.83;;;;;;;2.26;93.72;103412.19;5084156;28;20028;-76
2022/01/25 08:46:04;;;;;;;199.93;52.05;;;;;;;2.27;93.42;103410.50;5077918;28;20032;-76
2022/01/25 08:48:29;;;;;;;210.25;54.58;;;;;;;2.28;93.03;103408.84;5081072;28;20024;-76
2022/01/25 08:50:55;;;;;;;203.48;49.22;;;;;;;2.30;93.70;103404.75;5077054;28;20084;-76
2022/01/25 08:53:21;;;;;;;201.68;50.28;;;;;;;2.34;93.87;103412.03;5085336;28;20141;-76
2022/01/25 08:55:46;;;;;;;175.20;44.40;;;;;;;2.33;94.09;103405.06;5072306;28;20021;-76
2022/01/25 08:58:12;;;;;;;170.80;45.30;;;;;;;2.35;93.82;103403.56;5085194;28;20016;-75
2022/01/25 09:00:37;;;;;;;185.13;46.22;;;;;;;2.36;93.88;103406.28;5074748;28;20092;-76
2022/01/25 09:03:02;;;;;;;194.60;48.97;;;;;;;2.36;93.99;103406.28;5078569;28;20032;-75
2022/01/25 09:05:28;;;;;;;244.40;55.33;;;;;;;2.37;91.80;103412.31;5067100;28;20043;-76
2022/01/25 09:07:56;;;;;;;247.15;58.13;;;;;;;2.37;90.93;103414.91;5079759;28;20168;-75
2022/01/25 09:10:22;;;;;;;246.70;57.65;;;;;;;2.37;90.83;103426.09;5075395;28;20054;-75
2022/01/25 09:12:47;;;;;;;349.42;97.35;;;;;;;2.40;90.25;103417.75;5075515;28;20092;-75
2022/01/25 09:15:12;;;;;;;233.55;60.15;;;;;;;2.40;89.06;103415.19;5081329;28;20274;-75
2022/01/25 09:17:38;;;;;;;256.70;60.60;;;;;;;2.41;90.60;103411.88;5077210;28;20024;-75
2022/01/25 09:20:04;;;;;;;239.10;59.92;;;;;;;2.43;91.37;103416.41;5073952;28;20017;-76
2022/01/25 09:22:29;;;;;;;237.05;57.40;;;;;;;2.44;91.23;103418.22;5082897;28;20020;-75
2022/01/25 09:24:54;;;;;;;248.45;59.13;;;;;;;2.47;91.35;103417.59;5072683;28;20032;-75
2022/01/25 09:27:20;;;;;;;248.55;56.55;;;;;;;2.49;91.03;103416.13;5082407;28;20021;-75
2022/01/25 09:29:45;;;;;;;234.05;56.53;;;;;;;2.51;90.91;103416.25;5084400;28;20088;-75
2022/01/25 09:32:11;;;;;;;240.70;57.60;;;;;;;2.54;91.72;103417.44;5079874;28;20016;-75
2022/01/25 09:34:36;;;;;;;248.68;59.25;;;;;;;2.55;91.00;103424.44;5085008;28;20013;-75
2022/01/25 09:37:02;;;;;;;254.40;58.50;;;;;;;2.55;91.17;103419.28;5078404;28;20092;-75
2022/01/25 09:39:27;;;;;;;238.80;55.42;;;;;;;2.58;91.62;103426.41;5080677;28;20016;-75
2022/01/25 09:41:53;;;;;;;246.70;58.70;;;;;;;2.57;91.36;103422.00;5074976;28;20021;-76
2022/01/25 09:44:19;;;;;;;236.43;56.47;;;;;;;2.58;91.04;103428.97;5076604;28;20008;-76
2022/01/25 09:46:44;;;;;;;236.10;55.83;;;;;;;2.58;90.11;103427.28;5079139;28;20024;-76
2022/01/25 09:49:10;;;;;;;217.25;54.33;;;;;;;2.58;90.37;103421.25;5077361;28;20016;-75
2022/01/25 09:51:39;;;;;;;229.98;55.55;;;;;;;2.60;89.98;103425.75;5082335;28;20027;-76
2022/01/25 09:54:04;;;;;;;231.02;56.00;;;;;;;2.63;90.30;103429.41;5075389;28;20044;-75
2022/01/25 09:56:31;;;;;;;235.13;57.30;;;;;;;2.64;89.83;103438.97;5066826;28;20035;-76
2022/01/25 09:58:56;;;;;;;233.50;55.45;;;;;;;2.66;89.59;103432.28;5083505;28;20020;-75
2022/01/25 10:01:28;;;;;;;210.13;54.33;;;;;;;2.68;90.56;103441.06;5077766;28;20062;-75
2022/01/25 10:03:53;;;;;;;241.35;59.42;;;;;;;2.68;87.78;103441.06;5078038;28;20118;-75
2022/01/25 10:06:21;;;;;;;232.65;56.05;;;;;;;2.66;86.89;103435.75;5084873;28;20043;-75
2022/01/25 10:08:50;;;;;;;231.10;58.28;;;;;;;2.68;87.82;103438.47;5084910;28;20174;-75
2022/01/25 10:11:16;;;;;;;221.30;54.72;;;;;;;2.70;88.05;103439.56;5080122;28;20299;-75
2022/01/25 10:13:49;;;;;;;239.40;58.08;;;;;;;2.72;88.33;103443.16;5072048;28;20028;-75
2022/01/25 10:16:18;;;;;;;217.85;53.60;;;;;;;2.74;88.25;103440.00;5078607;28;20043;-75
2022/01/25 10:18:47;;;;;;;236.10;55.58;;;;;;;2.76;87.67;103435.00;5082159;28;20032;-76
2022/01/25 10:21:16;;;;;;;;;;;;;;;2.81;88.81;103438.94;5071508;28;20052;-75
2022/01/25 10:24:00;;;;;;;228.15;53.35;;;;;;;2.80;87.79;103438.78;5067073;28;19900;-75
2022/01/25 10:26:28;;;;;;;222.48;55.28;;;;;;;2.79;87.88;103443.00;5070649;28;20017;-75
2022/01/25 10:28:54;;;;;;;220.68;55.13;;;;;;;2.80;87.05;103436.22;5072055;28;20012;-75
2022/01/25 10:31:19;;;;;;;222.80;54.08;;;;;;;2.82;86.45;103439.84;5078252;28;20088;-75
2022/01/25 10:33:52;;;;;;;222.38;54.83;;;;;;;2.81;86.11;103438.94;5083517;28;20317;-76
2022/01/25 10:36:20;;;;;;;225.68;55.67;;;;;;;2.83;85.94;103436.50;5080100;28;20017;-75
2022/01/25 10:38:48;;;;;;;231.73;56.10;;;;;;;2.85;87.02;103435.88;5078824;28;20297;-75
2022/01/25 10:41:19;;;;;;;220.05;54.22;;;;;;;2.85;86.05;103432.41;5079976;28;20282;-75
2022/01/25 10:43:47;;;;;;;228.05;56.90;;;;;;;2.88;86.88;103440.41;5072353;28;20028;-75
2022/01/25 10:46:24;;;;;;;229.23;54.50;;;;;;;2.89;86.46;103437.09;5075820;28;20301;-75
2022/01/25 10:48:55;;;;;;;231.32;55.45;;;;;;;2.91;87.19;103431.34;5077375;28;20089;-75
2022/01/25 10:51:24;;;;;;;237.55;57.00;;;;;;;2.92;86.47;103432.22;5073101;28;20048;-75
2022/01/25 10:54:06;;;;;;;228.68;56.05;;;;;;;2.94;87.58;103436.78;5077844;28;20092;-75
2022/01/25 10:56:41;;;;;;;233.45;55.95;;;;;;;2.95;87.00;103437.69;5074361;28;20091;-75
2022/01/25 10:59:09;;;;;;;237.68;57.47;;;;;;;2.98;85.90;103431.91;5077971;28;20347;-75
2022/01/25 11:01:38;;;;;;;230.43;54.67;;;;;;;2.99;86.95;103428.59;5069588;28;20020;-75
2022/01/25 11:04:06;;;;;;;239.73;58.47;;;;;;;3.01;86.41;103434.78;5077784;28;20036;-75
2022/01/25 11:06:32;;;;;;;248.50;58.53;;;;;;;3.01;85.98;103434.78;5073362;28;20032;-75
2022/01/25 11:09:01;;;;;;;231.65;55.72;;;;;;;3.01;86.01;103430.53;5077670;28;20070;-75
2022/01/25 11:11:30;;;;;;;231.82;56.17;;;;;;;3.01;86.39;103432.22;5076293;28;20145;-75
2022/01/25 11:14:00;;;;;;;;;;;;;;;3.06;87.69;103433.56;5076580;28;20040;-75
2022/01/25 11:16:25;;;;;;;233.43;53.45;;;;;;;3.05;87.16;103434.31;5076292;28;19909;-79
2022/01/25 11:18:50;;;;;;;217.18;53.60;;;;;;;3.05;86.21;103439.47;5079231;28;20020;-75
2022/01/25 11:21:16;;;;;;;228.10;55.17;;;;;;;3.03;84.62;103441.91;5076097;28;20020;-76
2022/01/25 11:23:42;;;;;;;229.98;57.20;;;;;;;3.04;84.67;103442.81;5077713;28;20043;-75
2022/01/25 11:26:10;;;;;;;220.75;55.53;;;;;;;3.06;84.99;103441.31;5072661;28;20025;-75
2022/01/25 11:28:38;;;;;;;235.52;56.58;;;;;;;3.07;84.19;103438.88;5078255;28;20028;-75
2022/01/25 11:31:14;;;;;;;218.00;52.38;;;;;;;3.08;84.88;103439.78;5079730;28;20015;-75
2022/01/25 11:33:42;;;;;;;222.50;55.40;;;;;;;3.08;85.25;103435.50;5067465;28;20028;-75
2022/01/25 11:36:09;;;;;;;229.27;56.63;;;;;;;3.09;84.44;103442.50;5074411;28;20263;-75
2022/01/25 11:38:47;;;;;;;235.27;54.92;;;;;;;3.10;85.41;103439.16;5073793;28;20169;-75
2022/01/25 11:41:15;;;;;;;217.35;53.33;;;;;;;3.13;85.63;103441.13;5077659;28;20028;-75
2022/01/25 11:44:03;;;;;;;230.73;54.67;;;;;;;3.15;85.42;103436.13;5073947;28;20048;-75
2022/01/25 11:46:29;;;;;;;244.20;59.13;;;;;;;3.18;86.08;103439.88;5074683;28;20369;-75
2022/01/25 11:48:54;;;;;;;229.05;56.10;;;;;;;3.19;85.26;103433.09;5070656;28;20016;-75
2022/01/25 11:51:20;;;;;;;226.93;55.85;;;;;;;3.20;86.12;103451.28;5069038;28;20020;-76
2022/01/25 11:53:48;;;;;;;238.23;57.85;;;;;;;3.22;86.00;103439.41;5071452;28;20032;-75
2022/01/25 11:56:15;;;;;;;226.57;56.97;;;;;;;3.21;84.48;103429.88;5071712;28;20052;-75
2022/01/25 11:58:41;;;;;;;230.45;56.13;;;;;;;3.22;85.06;103433.38;5068626;28;20298;-75
2022/01/25 12:01:20;;;;;;;218.27;53.53;;;;;;;3.22;83.35;103429.13;5074129;28;20062;-75
2022/01/25 12:03:50;;;;;;;213.82;52.47;;;;;;;3.21;83.51;103431.56;5071260;28;20271;-75
2022/01/25 12:06:24;;;;;;;220.68;51.92;;;;;;;3.20;83.17;103427.16;5074393;28;20029;-75
2022/01/25 12:09:06;;;;;;;223.35;53.97;;;;;;;3.19;83.81;103421.09;5080602;28;20024;-75
2022/01/25 12:11:35;;;;;;;218.50;54.95;;;;;;;3.20;84.80;103419.41;5076809;28;20279;-75
2022/01/25 12:14:37;;;;;;;227.73;56.55;;;;;;;3.22;85.40;103426.53;5080614;28;20040;-75
2022/01/25 12:17:03;;;;;;;284.52;74.78;;;;;;;3.25;85.61;103424.25;5072084;28;20028;-75
2022/01/25 12:19:58;;;;;;;278.95;75.10;;;;;;;3.26;85.20;103420.91;5076274;28;20036;-75
2022/01/25 12:22:27;;;;;;;236.90;59.20;;;;;;;3.27;84.73;103422.75;5082402;28;20067;-75
2022/01/25 12:25:33;;;;;;;217.83;54.87;;;;;;;3.28;83.18;103423.66;5068882;28;20016;-75
2022/01/25 12:27:53;;;;;;;226.85;54.38;;;;;;;3.28;84.13;103415.91;5075579;28;20259;-75
2022/01/25 12:30:27;;;;;;;222.07;54.40;;;;;;;3.30;84.42;103415.31;5082624;28;20026;-76
2022/01/25 12:33:03;;;;;;;234.07;56.90;;;;;;;3.30;83.82;103412.72;5080839;28;20263;-75
2022/01/25 12:35:34;;;;;;;245.30;58.13;;;;;;;3.31;84.45;103411.03;5074065;28;20012;-75
2022/01/25 12:38:04;;;;;;;214.05;52.40;;;;;;;3.31;84.29;103405.91;5080178;28;20263;-75
2022/01/25 12:40:37;;;;;;;214.90;51.20;;;;;;;3.34;84.85;103400.13;5080810;28;20013;-74
2022/01/25 12:43:05;;;;;;;213.93;52.83;;;;;;;3.36;84.71;103398.59;5083337;28;20020;-74
2022/01/25 12:45:43;;;;;;;204.73;51.85;;;;;;;3.38;84.72;103405.72;5082690;28;20157;-74
2022/01/25 12:48:16;;;;;;;209.13;53.40;;;;;;;3.39;82.93;103401.44;5076794;28;20016;-74
2022/01/25 12:50:45;;;;;;;202.98;51.85;;;;;;;3.37;82.84;103393.56;5081450;28;20028;-74
2022/01/25 12:53:19;;;;;;;223.93;52.22;;;;;;;3.38;83.10;103392.81;5081291;28;20021;-74
2022/01/25 12:55:49;;;;;;;205.82;50.95;;;;;;;3.38;82.56;103391.94;5090714;28;20239;-74
2022/01/25 12:58:15;;;;;;;197.52;49.08;;;;;;;3.37;82.41;103384.94;5080731;28;20176;-74